Terminal Aerodrome Forecast
Issued by NWS

Home | Current Version | Previous Version | Text Only | Print | Product List | Glossary On
Versions: 1 2 3 4 5 6 7 8 9 10 11 12 13 14 15 16
790
FTUS45 KRIW 270538
TAFRKS
TAF
KRKS 270538Z 2706/2806 26013KT P6SM VCSH BKN030 OVC060
     FM270800 26016G24KT 2SM -SHSN SCT007 BKN012
     FM271500 26028G35KT P6SM BKN025 OVC050
     FM280200 28020G28KT P6SM VCSH SCT015 BKN025
     FM280500 26016G24KT 4SM -SN BKN015=

USA.gov is the U.S. government's official web portal to all federal, state and local government web resources and services.